Kings Canyon Natl Park (south), California
Current Conditions -  °F | °C
As of 9:56 PM on Tuesday 21 Oct 2014 (Local Time) from KBIH Reporting Station
Clear Clear  
Wind Chill: 58°   Ceiling: Unl
Heat Index: 58°   Visibility: 10mi
Dew Point: 19°   Wind: 8mph
Humidity: 22%   Direction: 330°NNW
Pressure: 29.99"   Gusts: NA
Location:  36.8°N, 118.5°W
Report Text: KBIH 220456Z AUTO 33007KT 10SM CLR 14/M07 A2999 RMK AO2 SLP121 T01441072
Loading
Personal Weather Stations






























Interactive Weather Map
Tropical Storm Tracking
New forecast layout! Learn more

10-Day Weather Forecast

Advertisements
Track Severe Weather on mobile